Marcolorado — V2EY5 — position and weather

sailwx.info

Track history (hours):
 
Tides and Currents Weather Stations Pressure Air Temp Water Temp Dewpoint Dewpoint Depression Visibility Wind Speed Wind Dir Waves Ship Positions

Marcolorado

Last reported at 2015-Dec-12 12:34 UTC. Time now 2016-Feb-08 21:17 UTC.
Position N 29°34' W 094°55'.
Warning: this ship's position is 58 days out of date.

Length 185 m; draft 10.2 m.

Type: Cargo ship. MMSI: 305599000.

Date/timePositionNaut miles runAvg speedWind from/ knotsBaromVisibWave heightAir tempDewpointWater temp
2015-Dec-12 12:34N 29°34' W 094°55'10 9.9
2015-Dec-12 11:33N 29°43' W 095°01'5 4.8
2015-Dec-12 10:33N 29°45' W 095°06'0 0.4
2015-Dec-12 09:32N 29°44' W 095°07'0 0.0
2015-Dec-12 08:29N 29°44' W 095°07'0 0.0
2015-Dec-12 07:20N 29°44' W 095°07'0 0.0
2015-Dec-12 06:26N 29°44' W 095°07'0 0.0
2015-Dec-12 05:29N 29°44' W 095°07'0 0.0
2015-Dec-12 04:23N 29°44' W 095°07'0 0.0
2015-Dec-12 03:32N 29°44' W 095°07'0 0.0
2015-Dec-12 02:32N 29°44' W 095°07'0 0.0
2015-Dec-12 00:32N 29°44' W 095°07'0 0.0
2015-Dec-11 23:32N 29°44' W 095°07'0 0.0
2015-Dec-11 22:31N 29°44' W 095°07'0 0.0
2015-Dec-11 21:14N 29°44' W 095°07'0 0.0
2015-Dec-11 20:32N 29°44' W 095°07'0 0.0
2015-Dec-11 19:29N 29°44' W 095°07'0 0.0
2015-Dec-11 18:32N 29°44' W 095°07'0 0.0
2015-Dec-11 17:32N 29°44' W 095°07'0 0.0
2015-Dec-11 16:31N 29°44' W 095°07'0 0.0
2015-Dec-11 15:31N 29°44' W 095°07'0 0.0
2015-Dec-11 14:31N 29°44' W 095°07'0 0.0
2015-Dec-11 13:26N 29°44' W 095°07'0 0.0
2015-Dec-11 12:26N 29°44' W 095°07'0 0.0
2015-Dec-11 11:31N 29°44' W 095°07'0 0.0
2015-Dec-11 10:32N 29°44' W 095°07'0 0.0
2015-Dec-11 09:32N 29°44' W 095°07'0 0.0
2015-Dec-11 08:32N 29°44' W 095°07'0 0.0
2015-Dec-11 07:31N 29°44' W 095°07'0 0.0
2015-Dec-11 06:31N 29°44' W 095°07'0 0.0
2015-Dec-11 05:31N 29°44' W 095°07'0 0.0
2015-Dec-11 04:31N 29°44' W 095°07'0 0.0
2015-Dec-11 03:31N 29°44' W 095°07'0 0.0
2015-Dec-11 02:28N 29°44' W 095°07'0 0.0
2015-Dec-11 01:31N 29°44' W 095°07'0 0.0
2015-Dec-11 00:31N 29°44' W 095°07'0 0.0
2015-Dec-10 23:32N 29°44' W 095°07'0 0.0
2015-Dec-10 22:31N 29°44' W 095°07'0 0.0
2015-Dec-10 21:31N 29°44' W 095°07'0 0.0
2015-Dec-10 20:31N 29°44' W 095°07'0 0.0
2015-Dec-10 19:31N 29°44' W 095°07'0 0.0
2015-Dec-10 18:28N 29°44' W 095°07'0 0.0
2015-Dec-10 17:28N 29°44' W 095°07'0 0.0
2015-Dec-10 16:28N 29°44' W 095°07'0 0.0
2015-Dec-10 15:31N 29°44' W 095°07'0 0.0
2015-Dec-10 14:31N 29°44' W 095°07'0 0.0
2015-Dec-10 13:31N 29°44' W 095°07'0 0.0
2015-Dec-10 09:31N 29°44' W 095°07'0 0.0
2015-Dec-10 08:07N 29°44' W 095°07'0 0.0
2015-Dec-10 07:28N 29°44' W 095°07'0 0.0
2015-Dec-10 06:31N 29°44' W 095°07'0 0.0
2015-Dec-10 05:28N 29°44' W 095°07'0 0.0
2015-Dec-10 04:28N 29°44' W 095°07'0 0.0
2015-Dec-10 03:31N 29°44' W 095°07'0 0.0
2015-Dec-10 02:28N 29°44' W 095°07'0 0.0
2015-Dec-10 01:31N 29°44' W 095°07'0 0.0
2015-Dec-10 00:31N 29°44' W 095°07'0 0.0
2015-Dec-09 23:31N 29°44' W 095°07'2 2.2
2015-Dec-09 22:33N 29°46' W 095°05'9 9.0
2015-Dec-09 21:34N 29°39' W 094°58'1110.9
2015-Dec-09 20:34N 29°30' W 094°52'18 0.7
2015-Dec-08 19:08N 29°14' W 094°40'0 0.0
2015-Dec-08 18:23N 29°14' W 094°40'0 0.0
2015-Dec-08 17:26N 29°14' W 094°40'0 0.0
2015-Dec-06 17:13N 29°14' W 094°40'  
2015-Dec-04 02:04N 29°21' W 094°46'1112.6
2015-Dec-04 01:13N 29°30' W 094°52'812.5
2015-Dec-04 00:33N 29°37' W 094°57'10 9.7
2015-Dec-03 23:33N 29°45' W 095°04'6 6.4
2015-Dec-03 22:33N 29°45' W 095°11'2 0.1
2015-Dec-03 03:13N 29°44' W 095°13'1 1.2
2015-Dec-03 02:32N 29°43' W 095°14'5 5.5
2015-Dec-03 01:33N 29°44' W 095°08'5 5.4
2015-Dec-03 00:33N 29°44' W 095°02'1010.4
2015-Dec-02 23:33N 29°35' W 094°56'1212.4
2015-Dec-02 22:33N 29°24' W 094°49'5 0.9
2015-Dec-02 17:17N 29°21' W 094°44'0 0.0
2015-Dec-02 13:30N 29°21' W 094°44'  
Track history (hours):
 
Tides and Currents Weather Stations Pressure Air Temp Water Temp Dewpoint Dewpoint Depression Visibility Wind Speed Wind Dir Waves Ship Positions

Marcolorado

Last reported at 2015-Dec-12 12:34 UTC. Time now 2016-Feb-08 21:17 UTC.
Position N 29°34' W 094°55'.
Warning: this ship's position is 58 days out of date.

Length 185 m; draft 10.2 m.

Type: Cargo ship. MMSI: 305599000.

Date/timePositionNaut miles runAvg speedWind from/ knotsBaromVisibWave heightAir tempDewpointWater temp
2015-Dec-12 12:34N 29°34' W 094°55'10 9.9
2015-Dec-12 11:33N 29°43' W 095°01'5 4.8
2015-Dec-12 10:33N 29°45' W 095°06'0 0.4
2015-Dec-12 09:32N 29°44' W 095°07'0 0.0
2015-Dec-12 08:29N 29°44' W 095°07'0 0.0
2015-Dec-12 07:20N 29°44' W 095°07'0 0.0
2015-Dec-12 06:26N 29°44' W 095°07'0 0.0
2015-Dec-12 05:29N 29°44' W 095°07'0 0.0
2015-Dec-12 04:23N 29°44' W 095°07'0 0.0
2015-Dec-12 03:32N 29°44' W 095°07'0 0.0
2015-Dec-12 02:32N 29°44' W 095°07'0 0.0
2015-Dec-12 00:32N 29°44' W 095°07'0 0.0
2015-Dec-11 23:32N 29°44' W 095°07'0 0.0
2015-Dec-11 22:31N 29°44' W 095°07'0 0.0
2015-Dec-11 21:14N 29°44' W 095°07'0 0.0
2015-Dec-11 20:32N 29°44' W 095°07'0 0.0
2015-Dec-11 19:29N 29°44' W 095°07'0 0.0
2015-Dec-11 18:32N 29°44' W 095°07'0 0.0
2015-Dec-11 17:32N 29°44' W 095°07'0 0.0
2015-Dec-11 16:31N 29°44' W 095°07'0 0.0
2015-Dec-11 15:31N 29°44' W 095°07'0 0.0
2015-Dec-11 14:31N 29°44' W 095°07'0 0.0
2015-Dec-11 13:26N 29°44' W 095°07'0 0.0
2015-Dec-11 12:26N 29°44' W 095°07'0 0.0
2015-Dec-11 11:31N 29°44' W 095°07'0 0.0
2015-Dec-11 10:32N 29°44' W 095°07'0 0.0
2015-Dec-11 09:32N 29°44' W 095°07'0 0.0
2015-Dec-11 08:32N 29°44' W 095°07'0 0.0
2015-Dec-11 07:31N 29°44' W 095°07'0 0.0
2015-Dec-11 06:31N 29°44' W 095°07'0 0.0
2015-Dec-11 05:31N 29°44' W 095°07'0 0.0
2015-Dec-11 04:31N 29°44' W 095°07'0 0.0
2015-Dec-11 03:31N 29°44' W 095°07'0 0.0
2015-Dec-11 02:28N 29°44' W 095°07'0 0.0
2015-Dec-11 01:31N 29°44' W 095°07'0 0.0
2015-Dec-11 00:31N 29°44' W 095°07'0 0.0
2015-Dec-10 23:32N 29°44' W 095°07'0 0.0
2015-Dec-10 22:31N 29°44' W 095°07'0 0.0
2015-Dec-10 21:31N 29°44' W 095°07'0 0.0
2015-Dec-10 20:31N 29°44' W 095°07'0 0.0
2015-Dec-10 19:31N 29°44' W 095°07'0 0.0
2015-Dec-10 18:28N 29°44' W 095°07'0 0.0
2015-Dec-10 17:28N 29°44' W 095°07'0 0.0
2015-Dec-10 16:28N 29°44' W 095°07'0 0.0
2015-Dec-10 15:31N 29°44' W 095°07'0 0.0
2015-Dec-10 14:31N 29°44' W 095°07'0 0.0
2015-Dec-10 13:31N 29°44' W 095°07'0 0.0
2015-Dec-10 09:31N 29°44' W 095°07'0 0.0
2015-Dec-10 08:07N 29°44' W 095°07'0 0.0
2015-Dec-10 07:28N 29°44' W 095°07'0 0.0
2015-Dec-10 06:31N 29°44' W 095°07'0 0.0
2015-Dec-10 05:28N 29°44' W 095°07'0 0.0
2015-Dec-10 04:28N 29°44' W 095°07'0 0.0
2015-Dec-10 03:31N 29°44' W 095°07'0 0.0
2015-Dec-10 02:28N 29°44' W 095°07'0 0.0
2015-Dec-10 01:31N 29°44' W 095°07'0 0.0
2015-Dec-10 00:31N 29°44' W 095°07'0 0.0
2015-Dec-09 23:31N 29°44' W 095°07'2 2.2
2015-Dec-09 22:33N 29°46' W 095°05'9 9.0
2015-Dec-09 21:34N 29°39' W 094°58'1110.9
2015-Dec-09 20:34N 29°30' W 094°52'18 0.7
2015-Dec-08 19:08N 29°14' W 094°40'0 0.0
2015-Dec-08 18:23N 29°14' W 094°40'0 0.0
2015-Dec-08 17:26N 29°14' W 094°40'0 0.0
2015-Dec-06 17:13N 29°14' W 094°40'  
2015-Dec-04 02:04N 29°21' W 094°46'1112.6
2015-Dec-04 01:13N 29°30' W 094°52'812.5
2015-Dec-04 00:33N 29°37' W 094°57'10 9.7
2015-Dec-03 23:33N 29°45' W 095°04'6 6.4
2015-Dec-03 22:33N 29°45' W 095°11'2 0.1
2015-Dec-03 03:13N 29°44' W 095°13'1 1.2
2015-Dec-03 02:32N 29°43' W 095°14'5 5.5
2015-Dec-03 01:33N 29°44' W 095°08'5 5.4
2015-Dec-03 00:33N 29°44' W 095°02'1010.4
2015-Dec-02 23:33N 29°35' W 094°56'1212.4
2015-Dec-02 22:33N 29°24' W 094°49'5 0.9
2015-Dec-02 17:17N 29°21' W 094°44'0 0.0
2015-Dec-02 13:30N 29°21' W 094°44'  

Dump ship's entire track history